Time;durP1;ratioP1;P1;durP2;ratioP2;P2;SDS_P1;SDS_P2;PMS_P1;PMS_P2;Temp;Humidity;BMP_temperature;BMP_pressure;BME280_temperature;BME280_humidity;BME280_pressure;Samples;Min_cycle;Max_cycle;Signal;HPM_P1;HPM_P2
2023/05/25 00:00:41;;;;;;;;;;;;;;;9.70;94.61;102591.03;5014622;28;19931;-53
2023/05/25 00:03:07;;;;;;;;;;;;;;;9.69;94.94;102590.16;5024777;28;20335;-50
2023/05/25 00:05:32;;;;;;;;;;;;;;;9.66;95.12;102593.44;5020070;28;19928;-51
2023/05/25 00:07:57;;;;;;;;;;;;;;;9.62;94.59;102588.91;5019598;28;19921;-53
2023/05/25 00:10:23;;;;;;;;;;;;;;;9.61;94.57;102589.72;5017975;28;19929;-50
2023/05/25 00:12:48;;;;;;;;;;;;;;;9.61;95.04;102587.13;5015301;28;19928;-50
2023/05/25 00:15:13;;;;;;;;;;;;;;;9.61;94.36;102592.28;5021529;28;19987;-52
2023/05/25 00:17:39;;;;;;;;;;;;;;;9.61;95.39;102592.28;5016041;28;19929;-53
2023/05/25 00:20:06;;;;;;;;;;;;;;;9.60;94.81;102590.50;5017254;28;19921;-53
2023/05/25 00:22:33;;;;;;;;;;;;;;;9.60;94.42;102581.91;5018755;28;19925;-52
2023/05/25 00:24:58;;;;;;;;;;;;;;;9.58;95.56;102589.50;5018212;28;19960;-49
2023/05/25 00:27:24;;;;;;;;;;;;;;;9.57;95.22;102594.56;5015214;28;19977;-50
2023/05/25 00:29:49;;;;;;;;;;;;;;;9.54;92.22;102590.13;5016434;28;19932;-53
2023/05/25 00:32:15;;;;;;;;;;;;;;;9.55;94.27;102591.03;5016207;28;19976;-51
2023/05/25 00:34:40;;;;;;;;;;;;;;;9.51;94.80;102591.63;5010788;28;20443;-49
2023/05/25 00:37:05;;;;;;;;;;;;;;;9.49;95.81;102594.13;5014757;28;19921;-49
2023/05/25 00:39:31;;;;;;;;;;;;;;;9.46;94.91;102599.03;5014093;28;19933;-49
2023/05/25 00:41:56;;;;;;;;;;;;;;;9.42;94.63;102599.69;5016691;28;19944;-50
2023/05/25 00:44:22;;;;;;;;;;;;;;;9.42;94.26;102598.78;5014208;28;19929;-48
2023/05/25 00:46:48;;;;;;;;;;;;;;;9.43;94.28;102603.13;5014279;28;20012;-52
2023/05/25 00:49:14;;;;;;;;;;;;;;;9.40;93.27;102593.53;5016353;28;19974;-49
2023/05/25 00:51:39;;;;;;;;;;;;;;;9.36;94.56;102592.50;5015594;28;19933;-53
2023/05/25 00:54:05;;;;;;;;;;;;;;;9.33;95.19;102593.97;5016181;28;20268;-49
2023/05/25 00:56:31;;;;;;;;;;;;;;;9.29;95.43;102587.78;5016996;28;20440;-51
2023/05/25 00:58:59;;;;;;;;;;;;;;;9.26;95.19;102592.72;5018233;28;19953;-49
2023/05/25 01:01:25;;;;;;;;;;;;;;;9.25;96.09;102600.34;5015553;28;20619;-52
2023/05/25 01:03:52;;;;;;;;;;;;;;;9.21;95.49;102598.34;5016098;28;19976;-50
2023/05/25 01:06:19;;;;;;;;;;;;;;;9.17;96.23;102601.56;5018276;28;19929;-49
2023/05/25 01:08:48;;;;;;;;;;;;;;;9.13;95.71;102606.47;5016880;28;19994;-52
2023/05/25 01:11:13;;;;;;;;;;;;;;;9.08;95.50;102605.31;5016757;28;20019;-52
2023/05/25 01:13:40;;;;;;;;;;;;;;;9.05;94.82;102606.81;5012864;28;20016;-51
2023/05/25 01:16:06;;;;;;;;;;;;;;;9.04;95.86;102611.06;5018172;28;19928;-50
2023/05/25 01:18:32;;;;;;;;;;;;;;;8.99;95.53;102604.75;5014918;28;19929;-53
2023/05/25 01:21:11;;;;;;;;;;;;;;;8.98;97.62;102612.34;5013637;28;19982;-50
2023/05/25 01:23:39;;;;;;;;;;;;;;;8.92;96.90;102615.44;5014071;28;20800;-52
2023/05/25 01:26:08;;;;;;;;;;;;;;;8.89;98.84;102615.22;5019115;28;20355;-56
2023/05/25 01:28:38;;;;;;;;;;;;;;;8.84;95.49;102619.16;5017418;28;19917;-54
2023/05/25 01:31:05;;;;;;;;;;;;;;;8.81;97.40;102622.44;5017867;28;19924;-53
2023/05/25 01:33:30;;;;;;;;;;;;;;;8.77;97.78;102630.72;5016552;28;20299;-53
2023/05/25 01:35:57;;;;;;;;;;;;;;;8.76;98.58;102623.81;5017482;28;20364;-53
2023/05/25 01:38:22;;;;;;;;;;;;;;;8.73;98.95;102623.63;5013149;28;20396;-53
2023/05/25 01:40:47;;;;;;;;;;;;;;;8.72;98.07;102620.97;5017603;28;19983;-53
2023/05/25 01:43:13;;;;;;;;;;;;;;;8.72;98.57;102636.34;5015820;28;21089;-53
2023/05/25 01:45:38;;;;;;;;;;;;;;;8.69;98.43;102625.91;5010889;28;19925;-53
2023/05/25 01:48:03;;;;;;;;;;;;;;;8.66;98.33;102621.47;5020060;28;20375;-53
2023/05/25 01:50:35;;;;;;;;;;;;;;;8.64;98.76;102632.41;5018038;28;20023;-52
2023/05/25 01:53:07;;;;;;;;;;;;;;;8.64;98.55;102632.41;5014543;28;19924;-54
2023/05/25 01:55:36;;;;;;;;;;;;;;;8.62;99.21;102628.88;5014857;28;20014;-53
2023/05/25 01:58:02;;;;;;;;;;;;;;;8.57;97.67;102628.59;5017740;28;19921;-53
2023/05/25 02:00:30;;;;;;;;;;;;;;;8.54;99.36;102631.81;5017617;28;19933;-54
2023/05/25 02:02:56;;;;;;;;;;;;;;;8.52;99.11;102630.84;5013615;28;19925;-54
2023/05/25 02:05:21;;;;;;;;;;;;;;;8.48;98.93;102633.09;5015670;28;19936;-50
2023/05/25 02:07:47;;;;;;;;;;;;;;;8.44;99.56;102629.47;5013789;28;19961;-53
2023/05/25 02:10:12;;;;;;;;;;;;;;;8.40;99.21;102632.63;5018081;28;19925;-52
2023/05/25 02:12:37;;;;;;;;;;;;;;;8.37;99.51;102626.38;5019701;28;19935;-52
2023/05/25 02:15:03;;;;;;;;;;;;;;;8.34;99.50;102627.94;5024408;28;19932;-54
2023/05/25 02:17:28;;;;;;;;;;;;;;;8.32;100.00;102628.63;5019762;28;20019;-49
2023/05/25 02:19:54;;;;;;;;;;;;;;;8.28;100.00;102621.53;5019856;28;19930;-52
2023/05/25 02:22:20;;;;;;;;;;;;;;;8.27;100.00;102623.22;5026510;28;19921;-53
2023/05/25 02:24:45;;;;;;;;;;;;;;;8.24;100.00;102628.13;5021131;28;19925;-50
2023/05/25 02:27:11;;;;;;;;;;;;;;;8.23;100.00;102628.03;5022484;28;20047;-52
2023/05/25 02:29:37;;;;;;;;;;;;;;;8.20;100.00;102627.84;5025696;28;19929;-50
2023/05/25 02:32:02;;;;;;;;;;;;;;;8.19;100.00;102623.47;5023366;28;20310;-51
2023/05/25 02:34:27;;;;;;;;;;;;;;;8.17;100.00;102627.63;5022098;28;19929;-52
2023/05/25 02:36:52;;;;;;;;;;;;;;;8.14;100.00;102624.88;5020149;28;19925;-51
2023/05/25 02:39:18;;;;;;;;;;;;;;;8.14;100.00;102620.63;5021968;28;20099;-53
2023/05/25 02:41:43;;;;;;;;;;;;;;;8.12;100.00;102619.63;5020765;28;19983;-52
2023/05/25 02:44:08;;;;;;;;;;;;;;;8.11;100.00;102617.84;5024026;28;19956;-49
2023/05/25 02:46:33;;;;;;;;;;;;;;;8.11;100.00;102619.53;5022548;28;19956;-52
2023/05/25 02:48:59;;;;;;;;;;;;;;;8.12;100.00;102622.19;5019627;28;19933;-49
2023/05/25 02:51:24;;;;;;;;;;;;;;;8.11;100.00;102616.97;5025157;28;19940;-52
2023/05/25 02:53:50;;;;;;;;;;;;;;;8.07;100.00;102627.03;5019470;28;19921;-53
2023/05/25 02:56:15;;;;;;;;;;;;;;;8.04;100.00;102621.69;5025129;28;20388;-53
2023/05/25 02:58:41;;;;;;;;;;;;;;;8.00;100.00;102624.81;5021235;28;19978;-53
2023/05/25 03:01:09;;;;;;;;;;;;;;;7.98;100.00;102631.53;5023121;28;20771;-52
2023/05/25 03:03:35;;;;;;;;;;;;;;;7.94;100.00;102639.78;5022541;28;19933;-53
2023/05/25 03:06:00;;;;;;;;;;;;;;;7.90;100.00;102632.69;5021919;28;19964;-53
2023/05/25 03:08:25;;;;;;;;;;;;;;;7.88;100.00;102635.94;5022469;28;19940;-52
2023/05/25 03:10:50;;;;;;;;;;;;;;;7.83;100.00;102629.63;5020951;28;20752;-50
2023/05/25 03:13:16;;;;;;;;;;;;;;;7.80;100.00;102640.53;5025410;28;20384;-52
2023/05/25 03:15:41;;;;;;;;;;;;;;;7.77;100.00;102643.78;5025067;28;20019;-53
2023/05/25 03:18:06;;;;;;;;;;;;;;;7.74;100.00;102652.94;5025206;28;19933;-52
2023/05/25 03:20:32;;;;;;;;;;;;;;;7.72;100.00;102663.06;5020689;28;19922;-53
2023/05/25 03:22:57;;;;;;;;;;;;;;;7.70;100.00;102654.38;5019534;28;19928;-50
2023/05/25 03:25:22;;;;;;;;;;;;;;;7.69;100.00;102661.97;5022229;28;19917;-53
2023/05/25 03:27:50;;;;;;;;;;;;;;;7.68;100.00;102657.63;5022442;28;19929;-53
2023/05/25 03:30:15;;;;;;;;;;;;;;;7.66;100.00;102662.66;5020276;28;20392;-53
2023/05/25 03:32:41;;;;;;;;;;;;;;;7.66;100.00;102667.78;5021653;28;19935;-48
2023/05/25 03:35:06;;;;;;;;;;;;;;;7.65;100.00;102666.00;5024263;28;19921;-46
2023/05/25 03:37:31;;;;;;;;;;;;;;;7.65;100.00;102675.38;5024235;28;19948;-44
2023/05/25 03:39:57;;;;;;;;;;;;;;;7.62;100.00;102672.56;5019983;28;20011;-44
2023/05/25 03:42:22;;;;;;;;;;;;;;;7.63;100.00;102687.16;5022634;28;20315;-44
2023/05/25 03:44:47;;;;;;;;;;;;;;;7.63;100.00;102682.03;5023484;28;20412;-45
2023/05/25 03:47:12;;;;;;;;;;;;;;;7.62;100.00;102687.94;5020134;28;20373;-45
2023/05/25 03:49:37;;;;;;;;;;;;;;;7.63;100.00;102688.03;5017463;28;19960;-47
2023/05/25 03:52:04;;;;;;;;;;;;;;;7.62;100.00;102691.38;5020562;28;19929;-47
2023/05/25 03:54:30;;;;;;;;;;;;;;;7.63;100.00;102685.47;5022571;28;19983;-45
2023/05/25 03:56:57;;;;;;;;;;;;;;;7.64;100.00;102686.34;5020841;28;20375;-45
2023/05/25 03:59:24;;;;;;;;;;;;;;;7.65;100.00;102688.16;5023557;28;19921;-44
2023/05/25 04:01:49;;;;;;;;;;;;;;;7.65;100.00;102691.63;5019835;28;19929;-45
2023/05/25 04:04:14;;;;;;;;;;;;;;;7.65;100.00;102683.94;5020309;28;19935;-44
2023/05/25 04:06:41;;;;;;;;;;;;;;;7.69;100.00;102682.44;5020921;28;20522;-44
2023/05/25 04:09:06;;;;;;;;;;;;;;;7.71;100.00;102684.34;5015715;28;19928;-44
2023/05/25 04:11:32;;;;;;;;;;;;;;;7.74;100.00;102681.09;5023172;28;20300;-44
2023/05/25 04:13:58;;;;;;;;;;;;;;;7.76;100.00;102674.41;5017521;28;19974;-44
2023/05/25 04:16:24;;;;;;;;;;;;;;;7.80;100.00;102681.50;5019463;28;20339;-44
2023/05/25 04:18:50;;;;;;;;;;;;;;;7.81;100.00;102685.84;5017325;28;19924;-45
2023/05/25 04:21:15;;;;;;;;;;;;;;;7.84;100.00;102683.50;5025362;28;19917;-44
2023/05/25 04:23:41;;;;;;;;;;;;;;;7.90;100.00;102688.16;5021290;28;19925;-47
2023/05/25 04:26:09;;;;;;;;;;;;;;;7.95;100.00;102680.00;5019388;28;19928;-44
2023/05/25 04:28:34;;;;;;;;;;;;;;;8.14;100.00;102694.06;5019672;28;19929;-44
2023/05/25 04:31:00;;;;;;;;;;;;;;;8.63;100.00;102692.19;5020443;28;19929;-46
2023/05/25 04:33:28;;;;;;;;;;;;;;;9.22;100.00;102692.53;5019735;28;19929;-46
2023/05/25 04:35:53;;;;;;;;;;;;;;;9.77;99.43;102696.84;5018481;28;19921;-45
2023/05/25 04:38:19;;;;;;;;;;;;;;;10.28;97.40;102693.03;5015823;28;19986;-43
2023/05/25 04:40:47;;;;;;;;;;;;;;;10.69;94.12;102702.25;5015666;28;19957;-45
2023/05/25 04:43:16;;;;;;;;;;;;;;;10.95;92.32;102702.03;5016812;28;20299;-44
2023/05/25 04:45:42;;;;;;;;;;;;;;;10.96;90.90;102688.34;5017297;28;20020;-45
2023/05/25 04:48:08;;;;;;;;;;;;;;;10.91;91.03;102696.63;5021514;28;20353;-45
2023/05/25 04:50:33;;;;;;;;;;;;;;;10.92;91.26;102690.66;5019746;28;20364;-45
2023/05/25 04:52:58;;;;;;;;;;;;;;;10.94;90.72;102696.81;5015738;28;19926;-46
2023/05/25 04:55:24;;;;;;;;;;;;;;;10.95;91.46;102701.16;5020508;28;20290;-45
2023/05/25 04:57:52;;;;;;;;;;;;;;;10.95;90.87;102706.28;5017954;28;19925;-45
2023/05/25 05:00:17;;;;;;;;;;;;;;;10.80;91.34;102715.72;5016515;28;20008;-45
2023/05/25 05:02:43;;;;;;;;;;;;;;;10.60;92.33;102712.91;5016528;28;20280;-44
2023/05/25 05:05:08;;;;;;;;;;;;;;;10.57;92.87;102712.72;5015287;28;19943;-46
2023/05/25 05:07:33;;;;;;;;;;;;;;;10.84;92.83;102721.13;5018495;28;20399;-44
2023/05/25 05:09:59;;;;;;;;;;;;;;;11.22;92.22;102717.22;5018520;28;19933;-45
2023/05/25 05:12:24;;;;;;;;;;;;;;;11.63;90.34;102711.72;5019579;28;20380;-46
2023/05/25 05:14:49;;;;;;;;;;;;;;;11.90;88.89;102714.03;5017577;28;19928;-45
2023/05/25 05:17:16;;;;;;;;;;;;;;;11.92;88.71;102709.84;5019087;28;19933;-45
2023/05/25 05:19:41;;;;;;;;;;;;;;;12.11;88.52;102709.97;5014963;28;20004;-47
2023/05/25 05:22:08;;;;;;;;;;;;;;;12.43;87.48;102718.44;5018043;28;20372;-47
2023/05/25 05:24:33;;;;;;;;;;;;;;;12.72;86.51;102723.34;5017650;28;20307;-47
2023/05/25 05:27:00;;;;;;;;;;;;;;;12.97;85.41;102720.25;5016450;28;19921;-49
2023/05/25 05:29:27;;;;;;;;;;;;;;;13.18;84.62;102720.41;5009944;28;19929;-49
2023/05/25 05:31:54;;;;;;;;;;;;;;;13.40;83.68;102728.34;5014873;28;19968;-46
2023/05/25 05:34:19;;;;;;;;;;;;;;;13.70;84.71;102725.38;5018198;28;20008;-46
2023/05/25 05:36:44;;;;;;;;;;;;;;;13.85;83.73;102732.97;5015289;28;20028;-45
2023/05/25 05:39:09;;;;;;;;;;;;;;;14.04;83.77;102732.94;5014774;28;19924;-47
2023/05/25 05:41:35;;;;;;;;;;;;;;;14.19;82.45;102733.59;5015642;28;19925;-44
2023/05/25 05:44:00;;;;;;;;;;;;;;;14.24;82.42;102733.78;5014488;28;19929;-46
2023/05/25 05:46:25;;;;;;;;;;;;;;;14.31;81.28;102743.59;5015920;28;20022;-44
2023/05/25 05:48:51;;;;;;;;;;;;;;;14.36;80.27;102744.66;5024157;28;19932;-44
2023/05/25 05:51:16;;;;;;;;;;;;;;;14.55;82.16;102740.28;5023035;28;20283;-45
2023/05/25 05:53:41;;;;;;;;;;;;;;;14.71;79.18;102748.75;5021841;28;19921;-46
2023/05/25 05:56:15;;;;;;;;;;;;;;;14.67;79.51;102748.56;5022199;28;20348;-44
2023/05/25 05:58:40;;;;;;;;;;;;;;;14.72;79.92;102754.81;5023890;28;20290;-46
2023/05/25 06:01:05;;;;;;;;;;;;;;;14.86;79.03;102760.56;5023855;28;20587;-47
2023/05/25 06:03:31;;;;;;;;;;;;;;;14.97;78.07;102757.59;5024624;28;19975;-46
2023/05/25 06:05:56;;;;;;;;;;;;;;;15.08;78.35;102765.78;5024727;28;20466;-46
2023/05/25 06:08:22;;;;;;;;;;;;;;;15.21;75.67;102772.34;5020958;28;20153;-46
2023/05/25 06:10:47;;;;;;;;;;;;;;;15.23;78.01;102765.53;5024080;28;20012;-48
2023/05/25 06:13:12;;;;;;;;;;;;;;;15.41;74.31;102768.84;5023161;28;20715;-47
2023/05/25 06:15:38;;;;;;;;;;;;;;;15.60;75.59;102764.34;5023310;28;20443;-47
2023/05/25 06:18:03;;;;;;;;;;;;;;;15.77;72.35;102763.28;5022045;28;19940;-46
2023/05/25 06:20:28;;;;;;;;;;;;;;;15.64;72.52;102769.72;5023112;28;19936;-47
2023/05/25 06:22:53;;;;;;;;;;;;;;;15.46;73.09;102762.09;5020584;28;19928;-45
2023/05/25 06:25:19;;;;;;;;;;;;;;;15.48;72.86;102765.66;5023076;28;19939;-44
2023/05/25 06:27:44;;;;;;;;;;;;;;;15.31;72.99;102779.66;5020577;28;20350;-45
2023/05/25 06:30:10;;;;;;;;;;;;;;;15.06;75.32;102769.16;5022579;28;19925;-46
2023/05/25 06:32:35;;;;;;;;;;;;;;;15.14;74.31;102775.53;5023838;28;19925;-50
2023/05/25 06:35:01;;;;;;;;;;;;;;;15.35;75.05;102771.19;5025389;28;19925;-46
2023/05/25 06:37:26;;;;;;;;;;;;;;;15.66;72.16;102775.88;5020085;28;19976;-45
2023/05/25 06:39:51;;;;;;;;;;;;;;;15.57;71.65;102783.25;5021230;28;19936;-46
2023/05/25 06:42:16;;;;;;;;;;;;;;;15.57;71.55;102791.91;5020974;28;19929;-46
2023/05/25 06:44:42;;;;;;;;;;;;;;;15.61;72.34;102790.34;5023123;28;20039;-46
2023/05/25 06:47:07;;;;;;;;;;;;;;;15.72;72.33;102793.38;5022074;28;19977;-46
2023/05/25 06:49:32;;;;;;;;;;;;;;;15.56;72.13;102792.75;5019170;28;19930;-47
2023/05/25 06:51:57;;;;;;;;;;;;;;;15.40;71.56;102795.56;5022600;28;20364;-47
2023/05/25 06:54:23;;;;;;;;;;;;;;;15.21;71.51;102790.47;5020637;28;19921;-50
2023/05/25 06:56:48;;;;;;;;;;;;;;;15.03;71.47;102791.50;5023285;28;20384;-46
2023/05/25 06:59:13;;;;;;;;;;;;;;;14.72;71.05;102801.44;5021459;28;19964;-48
2023/05/25 07:01:39;;;;;;;;;;;;;;;14.36;73.00;102804.19;5020238;28;20235;-46
2023/05/25 07:04:05;;;;;;;;;;;;;;;14.34;72.74;102808.44;5023005;28;20359;-46
2023/05/25 07:06:30;;;;;;;;;;;;;;;14.62;72.27;102807.03;5022707;28;19964;-50
2023/05/25 07:08:55;;;;;;;;;;;;;;;14.83;70.95;102797.59;5025039;28;20388;-48
2023/05/25 07:11:22;;;;;;;;;;;;;;;14.75;70.74;102801.59;5021393;28;20354;-47
2023/05/25 07:13:47;;;;;;;;;;;;;;;14.83;71.33;102804.47;5021862;28;19936;-47
2023/05/25 07:16:12;;;;;;;;;;;;;;;14.92;70.79;102810.03;5020287;28;20031;-47
2023/05/25 07:18:39;;;;;;;;;;;;;;;15.20;71.75;102805.16;5016564;28;20647;-46
2023/05/25 07:21:05;;;;;;;;;;;;;;;15.76;69.71;102805.59;5019378;28;19937;-47
2023/05/25 07:23:30;;;;;;;;;;;;;;;16.12;69.53;102803.47;5024969;28;19917;-47
2023/05/25 07:25:56;;;;;;;;;;;;;;;16.23;68.87;102804.75;5023346;28;19920;-47
2023/05/25 07:28:21;;;;;;;;;;;;;;;16.24;67.24;102813.44;5019624;28;20288;-48
2023/05/25 07:30:46;;;;;;;;;;;;;;;16.12;67.79;102808.69;5022445;28;20008;-46
2023/05/25 07:33:11;;;;;;;;;;;;;;;16.17;67.26;102807.13;5020398;28;19961;-47
2023/05/25 07:35:37;;;;;;;;;;;;;;;16.06;67.63;102814.53;5021214;28;19928;-47
2023/05/25 07:38:05;;;;;;;;;;;;;;;16.12;67.98;102811.28;5022197;28;19933;-49
2023/05/25 07:40:31;;;;;;;;;;;;;;;16.19;67.78;102814.97;5017603;28;19975;-45
2023/05/25 07:42:56;;;;;;;;;;;;;;;16.41;67.57;102821.81;5005752;28;19925;-47
2023/05/25 07:45:21;;;;;;;;;;;;;;;16.87;66.20;102808.72;5022016;28;19921;-44
2023/05/25 07:47:47;;;;;;;;;;;;;;;17.07;65.01;102807.66;5019024;28;20304;-49
2023/05/25 07:50:13;;;;;;;;;;;;;;;17.12;63.51;102811.28;5022432;28;19937;-46
2023/05/25 07:52:38;;;;;;;;;;;;;;;17.16;63.28;102818.31;5020414;28;19929;-48
2023/05/25 07:55:05;;;;;;;;;;;;;;;17.20;65.04;102810.66;5017781;28;20299;-48
2023/05/25 07:57:30;;;;;;;;;;;;;;;17.54;63.84;102805.66;5023977;28;19986;-45
2023/05/25 07:59:55;;;;;;;;;;;;;;;17.66;63.46;102821.63;5022480;28;20397;-48
2023/05/25 08:02:21;;;;;;;;;;;;;;;17.86;62.54;102824.84;5021536;28;19933;-46
2023/05/25 08:04:46;;;;;;;;;;;;;;;17.69;61.91;102826.91;5017176;28;19921;-46
2023/05/25 08:07:11;;;;;;;;;;;;;;;17.52;62.32;102815.13;5017759;28;19967;-46
2023/05/25 08:09:36;;;;;;;;;;;;;;;17.25;62.19;102824.69;5019447;28;19968;-46
2023/05/25 08:12:02;;;;;;;;;;;;;;;17.08;63.00;102824.13;5018803;28;19921;-49
2023/05/25 08:14:27;;;;;;;;;;;;;;;17.32;62.50;102821.44;5015916;28;19936;-46
2023/05/25 08:16:52;;;;;;;;;;;;;;;17.43;62.53;102820.94;5018308;28;19929;-46
2023/05/25 08:19:18;;;;;;;;;;;;;;;17.62;60.02;102822.38;5016439;28;19933;-47
2023/05/25 08:21:43;;;;;;;;;;;;;;;17.43;60.93;102823.53;5017213;28;19921;-45
2023/05/25 08:24:08;;;;;;;;;;;;;;;17.47;60.54;102827.09;5019557;28;19951;-46
2023/05/25 08:26:37;;;;;;;;;;;;;;;17.56;60.60;102824.78;5018066;28;19925;-45
2023/05/25 08:29:03;;;;;;;;;;;;;;;17.73;61.06;102832.25;5017172;28;19949;-47
2023/05/25 08:31:29;;;;;;;;;;;;;;;18.12;59.10;102828.19;5022438;28;19918;-47
2023/05/25 08:33:55;;;;;;;;;;;;;;;18.31;58.27;102826.97;5020581;28;19932;-49
2023/05/25 08:36:20;;;;;;;;;;;;;;;18.58;58.71;102825.97;5019750;28;19972;-48
2023/05/25 08:38:45;;;;;;;;;;;;;;;18.64;56.14;102829.63;5017848;28;19925;-46
2023/05/25 08:41:10;;;;;;;;;;;;;;;18.46;56.45;102839.56;5013944;28;20600;-48
2023/05/25 08:43:36;;;;;;;;;;;;;;;18.18;57.18;102838.78;5013791;28;19929;-47
2023/05/25 08:46:05;;;;;;;;;;;;;;;18.01;57.30;102842.63;5019066;28;19922;-47
2023/05/25 08:48:35;;;;;;;;;;;;;;;17.73;57.56;102845.28;5017625;28;19975;-46
2023/05/25 08:51:05;;;;;;;;;;;;;;;17.17;57.56;102842.63;5019714;28;19921;-45
2023/05/25 08:53:33;;;;;;;;;;;;;;;17.02;60.11;102837.81;5020432;28;20392;-45
2023/05/25 08:55:59;;;;;;;;;;;;;;;17.09;59.29;102834.56;5015427;28;19921;-46
2023/05/25 08:58:29;;;;;;;;;;;;;;;16.91;59.37;102835.69;5021920;28;19929;-45
2023/05/25 09:00:57;;;;;;;;;;;;;;;16.79;59.65;102830.97;5017570;28;19921;-46
2023/05/25 09:03:22;;;;;;;;;;;;;;;16.52;60.36;102849.94;5020209;28;19979;-45
2023/05/25 09:05:48;;;;;;;;;;;;;;;16.38;60.35;102853.75;5022139;28;19968;-44
2023/05/25 09:08:14;;;;;;;;;;;;;;;16.05;61.10;102853.41;5019700;28;19925;-44
2023/05/25 09:10:40;;;;;;;;;;;;;;;15.94;61.56;102852.13;5015503;28;20315;-45
2023/05/25 09:13:05;;;;;;;;;;;;;;;15.81;62.58;102850.75;5014754;28;19923;-46
2023/05/25 09:15:31;;;;;;;;;;;;;;;15.82;62.70;102849.94;5012199;28;19983;-46
2023/05/25 09:17:56;;;;;;;;;;;;;;;15.94;62.10;102860.78;5019034;28;19964;-46
2023/05/25 09:20:22;;;;;;;;;;;;;;;16.03;61.77;102853.34;5020186;28;19917;-45
2023/05/25 09:22:48;;;;;;;;;;;;;;;16.05;62.14;102854.28;5016090;28;19921;-46
2023/05/25 09:25:15;;;;;;;;;;;;;;;16.10;62.23;102857.06;5017167;28;19929;-45
2023/05/25 09:27:41;;;;;;;;;;;;;;;15.95;62.57;102856.47;5019358;28;20012;-45
2023/05/25 09:30:07;;;;;;;;;;;;;;;15.80;63.18;102857.66;5018225;28;20024;-46
2023/05/25 09:32:32;;;;;;;;;;;;;;;15.74;63.10;102856.56;5021451;28;19979;-46
2023/05/25 09:35:07;;;;;;;;;;;;;;;15.67;63.27;102863.22;5020327;28;20083;-44
2023/05/25 09:37:33;;;;;;;;;;;;;;;15.73;62.96;102860.84;5016296;28;19979;-45
2023/05/25 09:39:58;;;;;;;;;;;;;;;15.86;62.33;102863.91;5018310;28;19921;-47
2023/05/25 09:42:24;;;;;;;;;;;;;;;15.89;61.81;102864.03;5018175;28;19937;-46
2023/05/25 09:44:50;;;;;;;;;;;;;;;15.80;61.80;102865.44;5022606;28;19932;-45
2023/05/25 09:47:16;;;;;;;;;;;;;;;15.87;61.67;102863.09;5020369;28;19927;-47
2023/05/25 09:49:43;;;;;;;;;;;;;;;15.93;61.11;102860.72;5009956;28;19929;-46
2023/05/25 09:52:08;;;;;;;;;;;;;;;15.97;62.16;102860.03;5015921;28;19932;-45
2023/05/25 09:54:34;;;;;;;;;;;;;;;16.12;61.35;102860.59;5017511;28;19921;-45
2023/05/25 09:57:01;;;;;;;;;;;;;;;16.26;61.40;102859.41;5018873;28;19929;-49
2023/05/25 09:59:27;;;;;;;;;;;;;;;16.39;60.80;102865.91;5019812;28;19932;-46
2023/05/25 10:01:52;;;;;;;;;;;;;;;16.56;60.37;102861.28;5015551;28;21262;-45
2023/05/25 10:04:17;;;;;;;;;;;;;;;16.65;60.40;102864.22;5017401;28;20014;-45
2023/05/25 10:06:45;;;;;;;;;;;;;;;16.83;60.72;102864.00;5015100;28;20034;-46
2023/05/25 10:09:13;;;;;;;;;;;;;;;17.13;58.88;102865.03;5017132;28;19924;-45
2023/05/25 10:11:41;;;;;;;;;;;;;;;17.19;58.69;102851.34;5017630;28;20307;-46
2023/05/25 10:14:06;;;;;;;;;;;;;;;17.32;56.47;102863.03;5015544;28;19925;-47
2023/05/25 10:16:32;;;;;;;;;;;;;;;17.42;57.72;102858.19;5016100;28;20307;-45
2023/05/25 10:19:05;;;;;;;;;;;;;;;17.55;57.22;102863.78;5015576;28;20032;-47
2023/05/25 10:21:31;;;;;;;;;;;;;;;17.76;55.61;102868.78;5018013;28;19984;-45
2023/05/25 10:24:02;;;;;;;;;;;;;;;17.81;55.84;102862.00;5008033;28;19917;-47
2023/05/25 10:26:31;;;;;;;;;;;;;;;17.74;56.16;102866.13;5015774;28;19944;-47
2023/05/25 10:29:03;;;;;;;;;;;;;;;17.63;56.13;102868.34;5016459;28;20821;-46
2023/05/25 10:31:28;;;;;;;;;;;;;;;17.75;54.93;102867.00;5017183;28;20533;-47
2023/05/25 10:33:54;;;;;;;;;;;;;;;17.48;55.85;102862.69;5016761;28;19982;-46
2023/05/25 10:36:20;;;;;;;;;;;;;;;17.42;55.96;102872.91;5020142;28;19975;-48
2023/05/25 10:38:46;;;;;;;;;;;;;;;17.43;55.79;102859.06;5018280;28;19933;-50
2023/05/25 10:41:14;;;;;;;;;;;;;;;17.32;56.30;102865.63;5022574;28;19917;-47
2023/05/25 10:43:40;;;;;;;;;;;;;;;17.47;56.31;102866.09;5013474;28;19933;-49
2023/05/25 10:46:06;;;;;;;;;;;;;;;17.69;56.09;102865.94;5018233;28;19986;-48
2023/05/25 10:48:35;;;;;;;;;;;;;;;17.85;55.32;102866.47;5018074;28;19925;-49
2023/05/25 10:51:00;;;;;;;;;;;;;;;18.04;54.56;102862.66;5016141;28;20347;-46
2023/05/25 10:53:25;;;;;;;;;;;;;;;18.16;53.03;102858.69;5014576;28;20013;-46
2023/05/25 10:55:51;;;;;;;;;;;;;;;18.45;54.75;102858.63;5012958;28;20352;-49
2023/05/25 10:58:17;;;;;;;;;;;;;;;18.51;53.22;102864.00;5015707;28;19936;-48
2023/05/25 11:00:55;;;;;;;;;;;;;;;18.32;53.08;102861.72;5017235;28;19917;-50
2023/05/25 11:03:21;;;;;;;;;;;;;;;18.09;53.87;102867.19;5024099;28;19925;-50
2023/05/25 11:05:49;;;;;;;;;;;;;;;17.83;54.51;102866.38;5023801;28;20050;-49
2023/05/25 11:08:16;;;;;;;;;;;;;;;17.74;55.15;102863.53;5022290;28;19921;-49
2023/05/25 11:10:47;;;;;;;;;;;;;;;17.69;55.57;102863.34;5014971;28;19928;-47
2023/05/25 11:13:23;;;;;;;;;;;;;;;17.62;55.58;102858.78;5017617;28;20348;-49
2023/05/25 11:16:07;;;;;;;;;;;;;;;17.64;55.17;102857.13;5019261;28;19923;-49
2023/05/25 11:18:36;;;;;;;;;;;;;;;17.55;55.88;102859.44;5016930;28;20379;-50
2023/05/25 11:21:11;;;;;;;;;;;;;;;17.64;55.00;102858.84;5019407;28;19928;-49
2023/05/25 11:23:38;;;;;;;;;;;;;;;17.76;54.61;102856.63;5017892;28;19917;-48
2023/05/25 11:26:04;;;;;;;;;;;;;;;17.85;55.31;102859.53;5015340;28;19924;-46
2023/05/25 11:28:31;;;;;;;;;;;;;;;17.91;55.31;102854.50;5016514;28;19925;-48
2023/05/25 11:30:56;;;;;;;;;;;;;;;17.96;54.76;102846.84;5009695;28;20291;-49
2023/05/25 11:33:22;;;;;;;;;;;;;;;18.07;54.47;102848.00;5017593;28;19921;-47
2023/05/25 11:35:48;;;;;;;;;;;;;;;18.09;55.15;102848.94;5013960;28;20029;-49
2023/05/25 11:38:14;;;;;;;;;;;;;;;18.13;54.69;102829.06;5015119;28;19933;-49
2023/05/25 11:40:40;;;;;;;;;;;;;;;18.14;54.35;102829.13;5016809;28;19932;-51
2023/05/25 11:43:06;;;;;;;;;;;;;;;18.16;53.01;102835.25;5014817;28;19944;-48
2023/05/25 11:45:36;;;;;;;;;;;;;;;18.20;53.88;102833.59;5018473;28;19921;-47
2023/05/25 11:48:02;;;;;;;;;;;;;;;18.22;52.09;102835.44;5014616;28;19925;-47
2023/05/25 11:50:28;;;;;;;;;;;;;;;18.35;53.81;102831.44;5017875;28;19928;-49
2023/05/25 11:52:53;;;;;;;;;;;;;;;18.42;52.27;102824.69;5015393;28;19921;-50
2023/05/25 11:55:18;;;;;;;;;;;;;;;18.39;52.37;102820.28;5023393;28;19921;-49
2023/05/25 11:57:44;;;;;;;;;;;;;;;18.29;52.34;102825.19;5020702;28;20402;-49
2023/05/25 12:00:12;;;;;;;;;;;;;;;18.29;52.79;102822.59;5020847;28;20440;-49
2023/05/25 12:02:38;;;;;;;;;;;;;;;18.14;52.86;102810.91;5019388;28;19926;-51
2023/05/25 12:05:03;;;;;;;;;;;;;;;18.07;53.29;102814.16;5012425;28;19928;-49
2023/05/25 12:07:29;;;;;;;;;;;;;;;18.04;54.15;102811.50;5022403;28;19931;-47
2023/05/25 12:10:23;;;;;;;;;;;;;;;18.18;53.83;102811.88;5021357;28;20930;-49
2023/05/25 12:12:50;;;;;;;;;;;;;;;18.53;52.93;102809.34;5020607;28;19923;-45
2023/05/25 12:15:17;;;;;;;;;;;;;;;18.54;52.92;102813.69;5023212;28;19921;-50
2023/05/25 12:17:43;;;;;;;;;;;;;;;18.58;52.58;102810.34;5023427;28;19974;-46
2023/05/25 12:20:10;;;;;;;;;;;;;;;18.57;52.01;102801.66;5020940;28;19921;-50
2023/05/25 12:22:35;;;;;;;;;;;;;;;18.67;51.87;102803.66;5023567;28;19917;-47
2023/05/25 12:25:00;;;;;;;;;;;;;;;18.56;51.61;102802.47;5020659;28;20380;-51
2023/05/25 12:27:26;;;;;;;;;;;;;;;18.49;52.50;102804.03;5016412;28;19925;-46
2023/05/25 12:29:51;;;;;;;;;;;;;;;18.56;52.20;102793.75;5023207;28;19927;-50
2023/05/25 12:32:17;;;;;;;;;;;;;;;18.26;52.41;102797.34;5023021;28;20281;-46